createdAt,value
2018-06-24T00:02:00.576Z,101489.08
2018-06-24T00:04:30.883Z,101505.13
2018-06-24T00:07:01.158Z,101496.70
2018-06-24T00:09:31.235Z,101489.80
2018-06-24T00:12:01.505Z,101486.92
2018-06-24T00:14:31.768Z,101477.25
2018-06-24T00:17:02.018Z,101488.25
2018-06-24T00:19:32.256Z,101482.19
2018-06-24T00:22:02.584Z,101487.87
2018-06-24T00:24:32.889Z,101478.20
2018-06-24T00:27:03.160Z,101470.37
2018-06-24T00:29:33.445Z,101477.25
2018-06-24T00:32:03.744Z,101468.34
2018-06-24T00:34:34.061Z,101473.02
2018-06-24T00:37:04.354Z,101465.44
2018-06-24T00:39:34.592Z,101469.77
2018-06-24T00:42:04.669Z,101462.88
2018-06-24T00:44:34.837Z,101459.61
2018-06-24T00:47:05.089Z,101457.19
2018-06-24T00:49:35.377Z,101456.48
2018-06-24T00:52:05.732Z,101457.47
2018-06-24T00:54:36.007Z,101449.50
2018-06-24T00:57:06.264Z,101445.84
2018-06-24T00:59:53.659Z,101437.65
2018-06-24T01:02:23.682Z,101430.06
2018-06-24T01:04:53.869Z,101425.23
2018-06-24T01:07:24.195Z,101420.86
2018-06-24T01:09:54.450Z,101421.24
2018-06-24T01:12:24.745Z,101420.39
2018-06-24T01:14:55.105Z,101415.20
2018-06-24T01:17:25.385Z,101415.93
2018-06-24T01:19:57.184Z,101406.87
2018-06-24T01:22:28.038Z,101413.75
2018-06-24T01:24:58.454Z,101415.45
2018-06-24T01:27:28.446Z,101412.66
2018-06-24T01:29:58.670Z,101400.83
2018-06-24T01:32:28.941Z,101410.72
2018-06-24T01:34:59.218Z,101407.24
2018-06-24T01:37:29.453Z,101408.19
2018-06-24T01:39:59.703Z,101405.16
2018-06-24T01:42:30.039Z,101402.50
2018-06-24T01:45:00.300Z,101410.72
2018-06-24T01:47:30.586Z,101408.19
2018-06-24T01:50:00.809Z,101402.64
2018-06-24T01:52:31.109Z,101392.14
2018-06-24T01:55:01.366Z,101401.55
2018-06-24T01:57:31.625Z,101401.31
2018-06-24T02:00:01.882Z,101403.36
2018-06-24T02:02:32.147Z,101401.18
2018-06-24T02:05:02.406Z,101401.18
2018-06-24T02:07:32.695Z,101404.81
2018-06-24T02:10:02.968Z,101398.41
2018-06-24T02:12:33.316Z,101403.11
2018-06-24T02:15:03.816Z,101398.78
2018-06-24T02:17:34.109Z,101399.98
2018-06-24T02:20:04.386Z,101402.64
2018-06-24T02:22:34.781Z,101401.78
2018-06-24T02:25:05.088Z,101402.64
2018-06-24T02:27:35.358Z,101408.32
2018-06-24T02:30:05.638Z,101406.24
2018-06-24T02:32:35.921Z,101400.93
2018-06-24T02:35:06.170Z,101409.41
2018-06-24T02:37:36.535Z,101402.77
2018-06-24T02:40:06.820Z,101409.75
2018-06-24T02:42:37.066Z,101408.89
2018-06-24T02:45:07.319Z,101403.81
2018-06-24T02:47:37.616Z,101411.55
2018-06-24T02:50:07.914Z,101408.89
2018-06-24T02:52:38.254Z,101415.28
2018-06-24T02:55:08.517Z,101410.35
2018-06-24T02:57:38.876Z,101405.99
2018-06-24T03:00:09.167Z,101398.78
2018-06-24T03:02:39.461Z,101391.99
2018-06-24T03:05:09.722Z,101399.36
2018-06-24T03:07:40.054Z,101390.19
2018-06-24T03:10:10.073Z,101393.93
2018-06-24T03:12:40.236Z,101396.83
2018-06-24T03:15:10.493Z,101391.27
2018-06-24T03:17:40.786Z,101391.14
2018-06-24T03:20:11.065Z,101403.47
2018-06-24T03:22:41.192Z,101396.36
2018-06-24T03:25:11.313Z,101398.63
2018-06-24T03:27:41.576Z,101393.33
2018-06-24T03:30:11.874Z,101397.30
2018-06-24T03:32:42.243Z,101391.05
2018-06-24T03:35:12.523Z,101388.48
2018-06-24T03:37:42.857Z,101385.73
2018-06-24T03:40:13.140Z,101381.00
2018-06-24T03:42:43.222Z,101377.02
2018-06-24T03:45:13.359Z,101373.16
2018-06-24T03:47:43.652Z,101376.92
2018-06-24T03:50:13.988Z,101382.70
2018-06-24T03:52:44.278Z,101382.23
2018-06-24T03:55:14.617Z,101384.51
2018-06-24T03:57:44.895Z,101377.52
2018-06-24T04:00:15.196Z,101387.16
2018-06-24T04:02:45.473Z,101391.62
2018-06-24T04:05:15.782Z,101392.47
2018-06-24T04:07:46.076Z,101390.89
2018-06-24T04:10:16.339Z,101395.98
2018-06-24T04:12:46.677Z,101393.45
2018-06-24T04:15:16.972Z,101392.47
2018-06-24T04:17:47.261Z,101389.47
2018-06-24T04:20:17.544Z,101389.56
2018-06-24T04:22:47.929Z,101396.11
2018-06-24T04:25:18.178Z,101390.89
2018-06-24T04:27:48.444Z,101392.95
2018-06-24T04:30:18.759Z,101389.47
2018-06-24T04:32:49.040Z,101388.14
2018-06-24T04:35:19.392Z,101388.72
2018-06-24T04:37:49.646Z,101396.93
2018-06-24T04:40:19.967Z,101394.41
2018-06-24T04:42:50.230Z,101397.91
2018-06-24T04:45:20.537Z,101402.47
2018-06-24T04:47:50.782Z,101398.48
2018-06-24T04:50:21.188Z,101405.88
2018-06-24T04:52:51.469Z,101403.79
2018-06-24T04:55:21.749Z,101409.10
2018-06-24T04:57:52.033Z,101402.22
2018-06-24T05:00:22.071Z,101412.27
2018-06-24T05:02:52.234Z,101410.18
2018-06-24T05:05:22.620Z,101411.89
2018-06-24T05:07:52.959Z,101414.41
2018-06-24T05:10:23.205Z,101419.38
2018-06-24T05:12:53.566Z,101420.23
2018-06-24T05:15:23.995Z,101422.38
2018-06-24T05:17:54.415Z,101423.83
2018-06-24T05:20:24.775Z,101431.19
2018-06-24T05:22:55.080Z,101425.53
2018-06-24T05:25:25.323Z,101425.28
2018-06-24T05:27:55.678Z,101429.86
2018-06-24T05:30:25.950Z,101429.86
2018-06-24T05:32:56.193Z,101426.02
2018-06-24T05:35:26.520Z,101434.32
2018-06-24T05:37:56.844Z,101428.53
2018-06-24T05:40:27.120Z,101428.66
2018-06-24T05:42:57.426Z,101429.14
2018-06-24T05:45:27.726Z,101433.13
2018-06-24T05:47:58.021Z,101431.32
2018-06-24T05:50:28.301Z,101437.58
2018-06-24T05:52:58.383Z,101435.30
2018-06-24T05:55:28.515Z,101430.09
2018-06-24T05:57:58.894Z,101424.91
2018-06-24T06:00:29.222Z,101427.81
2018-06-24T06:02:59.522Z,101426.86
2018-06-24T06:05:29.775Z,101424.68
2018-06-24T06:08:00.087Z,101421.42
2018-06-24T06:10:30.451Z,101420.23
2018-06-24T06:13:00.661Z,101423.70
2018-06-24T06:15:31.126Z,101426.73
2018-06-24T06:18:01.394Z,101418.30
2018-06-24T06:20:31.434Z,101417.20
2018-06-24T06:23:01.765Z,101429.39
2018-06-24T06:25:32.031Z,101425.53
2018-06-24T06:28:02.315Z,101427.81
2018-06-24T06:30:32.591Z,101438.30
2018-06-24T06:33:02.881Z,101442.28
2018-06-24T06:35:33.175Z,101438.68
2018-06-24T06:38:03.433Z,101443.52
2018-06-24T06:40:33.748Z,101447.50
2018-06-24T06:43:04.275Z,101447.12
2018-06-24T06:45:34.691Z,101450.16
2018-06-24T06:48:04.965Z,101455.94
2018-06-24T06:50:35.309Z,101460.77
2018-06-24T06:53:05.831Z,101454.14
2018-06-24T06:55:35.930Z,101459.06
2018-06-24T06:58:06.435Z,101469.34
2018-06-24T07:00:36.747Z,101462.95
2018-06-24T07:03:07.047Z,101467.28
2018-06-24T07:05:37.639Z,101463.90
2018-06-24T07:08:07.891Z,101455.56
2018-06-24T07:10:37.919Z,101458.72
2018-06-24T07:13:08.160Z,101462.58
2018-06-24T07:15:38.405Z,101461.38
2018-06-24T07:18:08.667Z,101465.23
2018-06-24T07:20:38.923Z,101470.66
2018-06-24T07:23:09.195Z,101469.81
2018-06-24T07:25:39.486Z,101471.48
2018-06-24T07:28:09.819Z,101473.66
2018-06-24T07:30:40.240Z,101460.74
2018-06-24T07:33:10.549Z,101475.97
2018-06-24T07:35:40.943Z,101479.10
2018-06-24T07:38:11.227Z,101477.05
2018-06-24T07:40:41.516Z,101478.25
2018-06-24T07:43:11.836Z,101472.56
2018-06-24T07:45:42.139Z,101465.11
2018-06-24T07:48:12.405Z,101463.78
2018-06-24T07:50:42.803Z,101464.59
2018-06-24T07:53:13.068Z,101463.17
2018-06-24T07:55:43.393Z,101471.23
2018-06-24T07:58:13.807Z,101459.67
2018-06-24T08:00:44.100Z,101461.84
2018-06-24T08:03:14.603Z,101460.27
2018-06-24T08:05:44.880Z,101453.16
2018-06-24T08:08:15.309Z,101456.64
2018-06-24T08:10:45.701Z,101462.80
2018-06-24T08:13:16.027Z,101464.98
2018-06-24T08:15:46.352Z,101463.40
2018-06-24T08:18:16.789Z,101458.47
2018-06-24T08:20:47.309Z,101459.67
2018-06-24T08:23:17.631Z,101460.99
2018-06-24T08:25:48.191Z,101460.36
2018-06-24T08:28:18.314Z,101459.29
2018-06-24T08:30:48.460Z,101460.36
2018-06-24T08:33:19.034Z,101467.16
2018-06-24T08:35:49.507Z,101458.34
2018-06-24T08:38:19.997Z,101456.54
2018-06-24T08:40:50.281Z,101462.70
2018-06-24T08:43:20.586Z,101460.14
2018-06-24T08:45:50.863Z,101467.50
2018-06-24T08:48:21.119Z,101466.17
2018-06-24T08:50:51.393Z,101465.36
2018-06-24T08:53:21.660Z,101472.81
2018-06-24T08:55:51.830Z,101467.25
2018-06-24T08:58:21.989Z,101475.59
2018-06-24T09:00:52.336Z,101465.58
2018-06-24T09:03:22.719Z,101488.74
2018-06-24T09:05:52.981Z,101478.50
2018-06-24T09:08:23.274Z,101486.47
2018-06-24T09:10:53.531Z,101494.43
2018-06-24T09:13:23.774Z,101488.17
2018-06-24T09:15:54.173Z,101482.11
2018-06-24T09:18:24.382Z,101492.16
2018-06-24T09:20:54.649Z,101479.58
2018-06-24T09:23:24.918Z,101481.63
2018-06-24T09:25:55.223Z,101480.30
2018-06-24T09:28:25.613Z,101484.76
2018-06-24T09:30:55.775Z,101474.74
2018-06-24T09:33:25.923Z,101471.48
2018-06-24T09:35:56.235Z,101473.32
2018-06-24T09:38:26.505Z,101478.50
2018-06-24T09:40:57.030Z,101475.00
2018-06-24T09:43:27.474Z,101471.02
2018-06-24T09:45:57.780Z,101481.53
2018-06-24T09:48:28.089Z,101481.06
2018-06-24T09:50:58.410Z,101470.06
2018-06-24T09:53:28.733Z,101472.47
2018-06-24T09:55:59.935Z,101481.53
2018-06-24T09:58:30.542Z,101474.05
2018-06-24T10:01:00.854Z,101481.06
2018-06-24T10:03:31.194Z,101480.55
2018-06-24T10:06:01.821Z,101470.53
2018-06-24T10:08:32.391Z,101470.31
2018-06-24T10:11:04.072Z,101476.57
2018-06-24T10:13:34.986Z,101466.94
2018-06-24T10:16:05.574Z,101468.13
2018-06-24T10:18:35.831Z,101463.30
2018-06-24T10:21:06.634Z,101472.12
2018-06-24T10:23:37.087Z,101470.91
2018-06-24T10:26:08.063Z,101471.27
2018-06-24T10:28:38.472Z,101468.13
2018-06-24T10:31:08.735Z,101468.36
2018-06-24T10:33:39.353Z,101474.42
2018-06-24T10:36:09.839Z,101467.28
2018-06-24T10:38:40.573Z,101474.05
2018-06-24T10:41:12.021Z,101465.95
2018-06-24T10:43:42.325Z,101470.44
2018-06-24T10:46:12.726Z,101463.30
2018-06-24T10:48:43.215Z,101462.73
2018-06-24T10:51:13.545Z,101457.64
2018-06-24T10:53:43.938Z,101457.89
2018-06-24T10:56:14.331Z,101466.33
2018-06-24T10:58:44.628Z,101452.80
2018-06-24T11:01:14.963Z,101455.33
2018-06-24T11:03:45.334Z,101460.30
2018-06-24T11:06:15.707Z,101467.05
2018-06-24T11:08:46.853Z,101463.67
2018-06-24T11:11:17.174Z,101459.22
2018-06-24T11:13:47.664Z,101459.22
2018-06-24T11:16:18.433Z,101454.14
2018-06-24T11:18:48.939Z,101451.35
2018-06-24T11:21:19.470Z,101447.75
2018-06-24T11:23:49.823Z,101451.35
2018-06-24T11:26:20.272Z,101452.68
2018-06-24T11:28:50.600Z,101449.08
2018-06-24T11:31:20.858Z,101448.35
2018-06-24T11:33:51.254Z,101448.35
2018-06-24T11:36:21.522Z,101445.70
2018-06-24T11:38:51.807Z,101452.08
2018-06-24T11:41:22.323Z,101453.76
2018-06-24T11:43:52.595Z,101457.64
2018-06-24T11:46:22.918Z,101454.14
2018-06-24T11:48:53.192Z,101448.83
2018-06-24T11:51:23.491Z,101447.97
2018-06-24T11:53:53.861Z,101451.00
2018-06-24T11:56:24.124Z,101440.95
2018-06-24T11:58:54.418Z,101449.30
2018-06-24T12:01:24.708Z,101449.91
2018-06-24T12:03:54.994Z,101447.50
2018-06-24T12:06:25.285Z,101451.95
2018-06-24T12:08:55.559Z,101455.21
2018-06-24T12:11:25.858Z,101452.91
2018-06-24T12:13:56.123Z,101449.77
2018-06-24T12:16:26.410Z,101447.59
2018-06-24T12:18:56.703Z,101442.66
2018-06-24T12:21:27.028Z,101445.54
2018-06-24T12:23:57.335Z,101434.58
2018-06-24T12:26:27.910Z,101429.27
2018-06-24T12:28:58.422Z,101430.84
2018-06-24T12:31:28.674Z,101428.89
2018-06-24T12:33:58.927Z,101425.77
2018-06-24T12:36:39.424Z,101427.94
2018-06-24T12:39:13.668Z,101428.77
2018-06-24T12:41:44.114Z,101427.94
2018-06-24T12:44:15.015Z,101425.52
2018-06-24T12:46:45.385Z,101424.05
2018-06-24T12:49:16.181Z,101425.77
2018-06-24T12:51:46.710Z,101422.34
2018-06-24T12:54:17.362Z,101417.05
2018-06-24T12:56:47.611Z,101420.67
2018-06-24T12:59:18.943Z,101422.63
2018-06-24T13:01:49.387Z,101422.03
2018-06-24T13:04:20.230Z,101420.33
2018-06-24T13:06:51.489Z,101418.75
2018-06-24T13:09:21.940Z,101413.66
2018-06-24T13:11:52.213Z,101418.75
2018-06-24T13:14:23.049Z,101414.98
2018-06-24T13:16:53.878Z,101413.44
2018-06-24T13:19:24.283Z,101409.08
2018-06-24T13:21:54.937Z,101419.59
2018-06-24T13:24:25.592Z,101413.44
2018-06-24T13:26:56.476Z,101414.39
2018-06-24T13:29:26.884Z,101411.86
2018-06-24T13:31:57.881Z,101410.41
2018-06-24T13:34:28.362Z,101409.08
2018-06-24T13:36:58.844Z,101406.42
2018-06-24T13:39:29.485Z,101409.20
2018-06-24T13:41:59.864Z,101407.03
2018-06-24T13:44:30.629Z,101404.27
2018-06-24T13:47:01.792Z,101411.73
2018-06-24T13:49:32.455Z,101404.03
2018-06-24T13:52:03.128Z,101409.68
2018-06-24T13:54:33.256Z,101415.97
2018-06-24T13:57:03.686Z,101414.98
2018-06-24T13:59:33.941Z,101412.71
2018-06-24T14:02:05.066Z,101417.05
2018-06-24T14:04:35.290Z,101412.34
2018-06-24T14:07:05.653Z,101413.31
2018-06-24T14:09:35.926Z,101410.66
2018-06-24T14:12:06.249Z,101415.84
2018-06-24T14:14:36.547Z,101412.23
2018-06-24T14:17:06.894Z,101408.48
2018-06-24T14:19:37.190Z,101410.16
2018-06-24T14:22:07.487Z,101410.53
2018-06-24T14:24:37.775Z,101404.98
2018-06-24T14:27:08.017Z,101412.34
2018-06-24T14:29:38.311Z,101412.81
2018-06-24T14:32:08.342Z,101415.59
2018-06-24T14:34:38.222Z,101418.50
2018-06-24T14:37:08.442Z,101421.75
2018-06-24T14:39:38.517Z,101415.37
2018-06-24T14:42:08.702Z,101413.80
2018-06-24T14:44:39.046Z,101416.80
2018-06-24T14:47:09.104Z,101415.59
2018-06-24T14:49:39.336Z,101413.80
2018-06-24T14:52:09.822Z,101418.00
2018-06-24T14:54:40.265Z,101425.96
2018-06-24T14:57:10.780Z,101426.69
2018-06-24T14:59:41.013Z,101426.34
2018-06-24T15:02:11.640Z,101424.03
2018-06-24T15:04:42.148Z,101430.91
2018-06-24T15:07:12.883Z,101425.27
2018-06-24T15:09:43.435Z,101436.95
2018-06-24T15:12:13.949Z,101437.30
2018-06-24T15:14:44.277Z,101432.97
2018-06-24T15:17:14.658Z,101424.73
2018-06-24T15:19:44.939Z,101421.98
2018-06-24T15:22:15.435Z,101428.48
2018-06-24T15:24:45.865Z,101421.59
2018-06-24T15:27:16.178Z,101421.13
2018-06-24T15:29:46.495Z,101415.22
2018-06-24T15:32:16.851Z,101411.74
2018-06-24T15:34:47.127Z,101417.39
2018-06-24T15:37:17.502Z,101419.20
2018-06-24T15:39:47.987Z,101417.05
2018-06-24T15:42:18.482Z,101412.44
2018-06-24T15:44:48.826Z,101412.56
2018-06-24T15:47:19.176Z,101411.36
2018-06-24T15:49:49.683Z,101413.16
2018-06-24T15:52:20.258Z,101424.16
2018-06-24T15:54:50.917Z,101418.47
2018-06-24T15:57:21.167Z,101414.62
2018-06-24T15:59:51.990Z,101421.50
2018-06-24T16:02:22.015Z,101423.69
2018-06-24T16:04:52.350Z,101418.00
2018-06-24T16:07:22.923Z,101412.31
2018-06-24T16:09:53.431Z,101408.70
2018-06-24T16:12:23.999Z,101403.63
2018-06-24T16:14:54.483Z,101404.48
2018-06-24T16:17:24.888Z,101408.80
2018-06-24T16:19:55.470Z,101405.33
2018-06-24T16:22:26.063Z,101405.33
2018-06-24T16:24:56.639Z,101400.97
2018-06-24T16:27:27.233Z,101400.84
2018-06-24T16:29:57.774Z,101392.87
2018-06-24T16:32:28.178Z,101393.61
2018-06-24T16:34:58.631Z,101395.19
2018-06-24T16:37:28.948Z,101393.14
2018-06-24T16:39:59.342Z,101391.30
2018-06-24T16:42:29.780Z,101388.30
2018-06-24T16:45:00.362Z,101385.27
2018-06-24T16:47:30.558Z,101393.39
2018-06-24T16:50:01.697Z,101395.53
2018-06-24T16:52:31.739Z,101393.01
2018-06-24T16:55:02.188Z,101390.73
2018-06-24T16:57:32.461Z,101383.94
2018-06-24T17:00:03.074Z,101387.23
2018-06-24T17:02:33.653Z,101390.35
2018-06-24T17:05:04.232Z,101385.65
2018-06-24T17:07:35.060Z,101388.65
2018-06-24T17:10:05.795Z,101392.28
2018-06-24T17:12:36.282Z,101387.92
2018-06-24T17:15:06.527Z,101385.52
2018-06-24T17:17:37.001Z,101385.17
2018-06-24T17:20:07.310Z,101383.72
2018-06-24T17:22:37.737Z,101381.20
2018-06-24T17:25:08.031Z,101381.29
2018-06-24T17:27:38.630Z,101380.56
2018-06-24T17:30:08.879Z,101382.02
2018-06-24T17:32:39.216Z,101377.78
2018-06-24T17:35:09.514Z,101389.16
2018-06-24T17:37:40.072Z,101389.72
2018-06-24T17:40:10.937Z,101384.55
2018-06-24T17:42:41.394Z,101382.23
2018-06-24T17:45:12.043Z,101385.40
2018-06-24T17:47:42.531Z,101389.16
2018-06-24T17:50:13.027Z,101386.22
2018-06-24T17:52:43.303Z,101388.78
2018-06-24T17:55:13.950Z,101389.63
2018-06-24T17:57:44.343Z,101385.97
2018-06-24T18:00:14.652Z,101386.22
2018-06-24T18:02:45.478Z,101382.14
2018-06-24T18:05:15.770Z,101388.40
2018-06-24T18:07:46.042Z,101381.67
2018-06-24T18:10:16.448Z,101373.80
2018-06-24T18:12:46.734Z,101370.91
2018-06-24T18:15:16.991Z,101378.54
2018-06-24T18:17:47.305Z,101376.45
2018-06-24T18:20:17.543Z,101373.45
2018-06-24T18:22:47.541Z,101374.78
2018-06-24T18:25:17.687Z,101366.06
2018-06-24T18:27:48.099Z,101367.39
2018-06-24T18:30:18.360Z,101365.72
2018-06-24T18:32:48.776Z,101365.50
2018-06-24T18:35:19.066Z,101355.83
2018-06-24T18:37:49.346Z,101359.81
2018-06-24T18:40:19.626Z,101352.70
2018-06-24T18:42:49.880Z,101358.86
2018-06-24T18:45:20.230Z,101352.08
2018-06-24T18:47:50.504Z,101355.83
2018-06-24T18:50:20.879Z,101357.62
2018-06-24T18:52:51.115Z,101363.06
2018-06-24T18:55:21.401Z,101365.12
2018-06-24T18:57:51.671Z,101365.12
2018-06-24T19:00:21.963Z,101357.86
2018-06-24T19:02:52.551Z,101360.16
2018-06-24T19:05:22.627Z,101362.59
2018-06-24T19:07:52.956Z,101362.09
2018-06-24T19:10:23.219Z,101360.28
2018-06-24T19:12:53.495Z,101356.44
2018-06-24T19:15:23.756Z,101357.77
2018-06-24T19:17:54.053Z,101347.72
2018-06-24T19:20:24.367Z,101357.28
2018-06-24T19:22:54.621Z,101360.89
2018-06-24T19:25:24.983Z,101361.36
2018-06-24T19:27:55.178Z,101360.98
2018-06-24T19:30:25.501Z,101367.91
2018-06-24T19:32:55.847Z,101359.56
2018-06-24T19:35:26.449Z,101358.46
2018-06-24T19:37:56.699Z,101364.88
2018-06-24T19:40:26.979Z,101362.31
2018-06-24T19:42:57.246Z,101360.64
2018-06-24T19:45:27.536Z,101360.52
2018-06-24T19:47:57.810Z,101364.97
2018-06-24T19:50:28.051Z,101368.47
2018-06-24T19:52:58.311Z,101373.44
2018-06-24T19:55:28.687Z,101374.00
2018-06-24T19:57:58.796Z,101372.58
2018-06-24T20:00:28.967Z,101374.86
2018-06-24T20:02:59.261Z,101374.00
2018-06-24T20:05:29.278Z,101377.98
2018-06-24T20:07:59.419Z,101383.06
2018-06-24T20:10:29.686Z,101386.70
2018-06-24T20:12:59.974Z,101390.68
2018-06-24T20:15:30.222Z,101376.31
2018-06-24T20:18:00.466Z,101385.72
2018-06-24T20:20:30.747Z,101388.97
2018-06-24T20:23:01.017Z,101385.47
2018-06-24T20:25:31.313Z,101382.81
2018-06-24T20:28:01.567Z,101381.87
2018-06-24T20:30:31.997Z,101383.19
2018-06-24T20:33:02.329Z,101377.16
2018-06-24T20:35:32.712Z,101384.62
2018-06-24T20:38:02.766Z,101393.08
2018-06-24T20:40:32.955Z,101396.94
2018-06-24T20:43:03.277Z,101399.59
2018-06-24T20:45:33.550Z,101395.13
2018-06-24T20:48:03.877Z,101392.95
2018-06-24T20:50:34.289Z,101396.08
2018-06-24T20:53:04.665Z,101387.02
2018-06-24T20:55:35.057Z,101397.54
2018-06-24T20:58:05.410Z,101397.54
2018-06-24T21:00:35.720Z,101400.80
2018-06-24T21:03:06.143Z,101397.54
2018-06-24T21:05:36.614Z,101406.83
2018-06-24T21:08:06.888Z,101408.75
2018-06-24T21:10:37.175Z,101414.78
2018-06-24T21:13:07.482Z,101412.98
2018-06-24T21:15:38.806Z,101402.13
2018-06-24T21:18:09.031Z,101404.17
2018-06-24T21:20:39.319Z,101411.28
2018-06-24T21:23:09.701Z,101413.68
2018-06-24T21:25:39.973Z,101418.86
2018-06-24T21:28:10.323Z,101414.06
2018-06-24T21:30:40.333Z,101411.97
2018-06-24T21:33:10.476Z,101418.05
2018-06-24T21:35:40.822Z,101417.28
2018-06-24T21:38:11.109Z,101428.53
2018-06-24T21:40:42.218Z,101411.41
2018-06-24T21:43:12.495Z,101415.39
2018-06-24T21:45:42.814Z,101416.34
2018-06-24T21:48:13.117Z,101410.42
2018-06-24T21:50:43.426Z,101414.06
2018-06-24T21:53:13.677Z,101424.67
2018-06-24T21:55:44.143Z,101421.64
2018-06-24T21:58:14.426Z,101413.68
2018-06-24T22:00:44.475Z,101412.35
2018-06-24T22:03:14.436Z,101408.38
2018-06-24T22:05:44.609Z,101406.58
2018-06-24T22:08:15.825Z,101407.52
2018-06-24T22:10:46.159Z,101403.67
2018-06-24T22:13:16.362Z,101393.88
2018-06-24T22:15:46.402Z,101399.94
2018-06-24T22:18:16.527Z,101406.20
2018-06-24T22:20:46.812Z,101404.87
2018-06-24T22:23:17.035Z,101404.87
2018-06-24T22:25:47.371Z,101399.69
2018-06-24T22:28:17.367Z,101401.36
2018-06-24T22:30:47.502Z,101398.23
2018-06-24T22:33:17.890Z,101402.34
2018-06-24T22:35:48.174Z,101397.04
2018-06-24T22:38:18.214Z,101400.73
2018-06-24T22:40:48.173Z,101404.48
2018-06-24T22:43:20.684Z,101402.22
2018-06-24T22:45:51.703Z,101402.34
2018-06-24T22:48:21.738Z,101393.41
2018-06-24T22:50:51.859Z,101408.09
2018-06-24T22:53:21.905Z,101402.87
2018-06-24T22:55:51.803Z,101401.93
2018-06-24T22:58:21.946Z,101402.78
2018-06-24T23:00:52.268Z,101402.06
2018-06-24T23:03:22.292Z,101406.77
2018-06-24T23:05:52.562Z,101409.42
2018-06-24T23:08:22.855Z,101410.75
2018-06-24T23:10:53.192Z,101410.58
2018-06-24T23:13:23.599Z,101421.36
2018-06-24T23:15:53.862Z,101424.61
2018-06-24T23:18:24.137Z,101429.79
2018-06-24T23:20:54.425Z,101427.61
2018-06-24T23:23:24.505Z,101408.98
2018-06-24T23:25:54.638Z,101415.33
2018-06-24T23:28:24.883Z,101413.14
2018-06-24T23:30:54.925Z,101417.00
2018-06-24T23:33:25.072Z,101409.16
2018-06-24T23:35:55.301Z,101403.38
2018-06-24T23:38:25.534Z,101414.72
2018-06-24T23:40:55.796Z,101406.03
2018-06-24T23:43:26.140Z,101404.20
2018-06-24T23:45:56.423Z,101409.52
2018-06-24T23:48:26.704Z,101402.53
2018-06-24T23:50:56.990Z,101396.47
2018-06-24T23:53:27.350Z,101400.35
2018-06-24T23:55:57.750Z,101401.20
2018-06-24T23:58:28.035Z,101395.90
